Time;durP1;ratioP1;P1;durP2;ratioP2;P2;SDS_P1;SDS_P2;PMS_P1;PMS_P2;Temp;Humidity;BMP_temperature;BMP_pressure;BME280_temperature;BME280_humidity;BME280_pressure;Samples;Min_cycle;Max_cycle;Signal;HPM_P1;HPM_P2
2022/10/16 00:01:26;;;;;;;11.23;10.00;;;15.50;99.90;;;;;;5116526;28;20450;-73
2022/10/16 00:03:52;;;;;;;12.00;9.40;;;15.50;99.90;;;;;;5134723;28;20449;-72
2022/10/16 00:06:20;;;;;;;12.73;9.13;;;15.50;99.90;;;;;;5115721;28;20430;-73
2022/10/16 00:08:46;;;;;;;11.60;8.70;;;15.50;99.90;;;;;;5134427;28;20389;-72
2022/10/16 00:11:24;;;;;;;9.57;8.53;;;15.50;99.90;;;;;;5132896;27;20476;-72
2022/10/16 00:14:00;;;;;;;9.70;8.50;;;15.50;99.90;;;;;;5118744;27;20486;-73
2022/10/16 00:16:26;;;;;;;10.03;8.83;;;15.40;99.90;;;;;;5137751;27;20411;-73
2022/10/16 00:18:52;;;;;;;10.70;9.00;;;15.40;99.90;;;;;;5138288;27;20411;-73
2022/10/16 00:21:22;;;;;;;12.93;9.10;;;15.30;99.90;;;;;;5137901;27;20438;-73
2022/10/16 00:23:54;;;;;;;12.30;9.03;;;15.30;99.90;;;;;;5119408;27;20967;-73
2022/10/16 00:26:20;;;;;;;10.43;8.87;;;15.20;99.90;;;;;;5119626;27;20505;-72
2022/10/16 00:28:50;;;;;;;12.07;9.23;;;15.20;99.90;;;;;;5119266;27;20675;-73
2022/10/16 00:31:18;;;;;;;11.50;8.27;;;15.10;99.90;;;;;;5137829;27;20462;-73
2022/10/16 00:33:44;;;;;;;12.10;9.10;;;15.10;99.90;;;;;;5137834;27;20472;-73
2022/10/16 00:36:12;;;;;;;10.90;9.50;;;15.10;99.90;;;;;;5137252;27;20442;-73
2022/10/16 00:38:38;;;;;;;11.70;9.47;;;15.00;99.90;;;;;;5137811;27;20411;-73
2022/10/16 00:41:05;;;;;;;9.93;8.47;;;15.00;99.90;;;;;;5137519;27;20415;-72
2022/10/16 00:43:43;;;;;;;20.77;10.17;;;14.90;99.90;;;;;;5119079;27;21014;-72
2022/10/16 00:46:31;;;;;;;11.80;9.70;;;14.90;99.90;;;;;;5118982;27;20463;-72
2022/10/16 00:49:12;;;;;;;10.80;8.37;;;14.80;99.90;;;;;;5118978;27;20469;-73
2022/10/16 00:51:45;;;;;;;15.80;9.77;;;14.80;99.90;;;;;;5118870;27;20406;-73
2022/10/16 00:54:15;;;;;;;11.80;9.07;;;14.80;99.90;;;;;;5137508;27;20467;-73
2022/10/16 00:56:41;;;;;;;15.03;11.20;;;14.70;99.90;;;;;;5137038;27;20387;-72
2022/10/16 00:59:16;;;;;;;12.67;8.53;;;14.70;99.90;;;;;;5118755;27;20434;-72
2022/10/16 01:01:41;;;;;;;11.27;8.47;;;14.70;99.90;;;;;;5137261;27;20428;-73
2022/10/16 01:04:07;;;;;;;15.13;8.43;;;14.60;99.90;;;;;;5118671;27;20419;-72
2022/10/16 01:06:44;;;;;;;9.47;7.70;;;14.50;99.90;;;;;;5118752;27;20243;-73
2022/10/16 01:09:35;;;;;;;11.40;7.83;;;14.50;99.90;;;;;;5137191;27;20182;-74
2022/10/16 01:12:32;;;;;;;12.40;8.47;;;14.50;99.90;;;;;;5136900;27;20399;-73
2022/10/16 01:15:16;;;;;;;12.40;8.90;;;14.50;99.90;;;;;;5118235;27;20531;-72
2022/10/16 01:17:49;;;;;;;10.67;8.13;;;14.40;99.90;;;;;;5136922;27;20461;-73
2022/10/16 01:20:42;;;;;;;13.27;7.50;;;14.40;99.90;;;;;;5136694;27;20464;-73
2022/10/16 01:23:30;;;;;;;9.93;7.67;;;14.40;99.90;;;;;;5105381;27;20470;-72
2022/10/16 01:26:37;;;;;;;9.43;7.83;;;14.30;99.90;;;;;;5136653;27;20441;-73
2022/10/16 01:29:16;;;;;;;12.30;8.30;;;14.30;99.90;;;;;;5118235;27;20438;-73
2022/10/16 01:31:48;;;;;;;11.67;8.30;;;14.30;99.90;;;;;;5136802;27;20474;-72
2022/10/16 01:34:25;;;;;;;11.03;8.20;;;14.30;99.90;;;;;;5117967;27;20478;-72
2022/10/16 01:37:00;;;;;;;10.60;7.30;;;14.20;99.90;;;;;;5117795;27;20958;-72
2022/10/16 01:39:31;;;;;;;9.13;7.60;;;14.20;99.90;;;;;;5136450;27;20399;-72
2022/10/16 01:42:06;;;;;;;11.53;8.80;;;14.20;99.90;;;;;;5136471;27;20414;-73
2022/10/16 01:44:36;;;;;;;11.97;8.90;;;14.20;99.90;;;;;;5117761;27;20437;-72
2022/10/16 01:47:02;;;;;;;9.30;7.80;;;14.20;99.90;;;;;;5117523;27;20497;-73
2022/10/16 01:49:32;;;;;;;12.13;8.40;;;14.20;99.90;;;;;;5117534;27;20967;-73
2022/10/16 01:52:01;;;;;;;15.80;8.43;;;14.20;99.90;;;;;;5136214;27;20387;-72
2022/10/16 01:54:30;;;;;;;14.47;8.37;;;14.20;99.90;;;;;;5135864;27;20558;-73
2022/10/16 01:56:57;;;;;;;10.20;7.90;;;14.20;99.90;;;;;;5117267;27;20418;-72
2022/10/16 01:59:26;;;;;;;11.87;9.10;;;14.20;99.90;;;;;;5117474;27;20768;-73
2022/10/16 02:01:59;;;;;;;10.83;8.17;;;14.20;99.90;;;;;;5136016;27;20403;-72
2022/10/16 02:04:39;;;;;;;11.00;8.07;;;14.20;99.90;;;;;;5135910;27;20395;-73
2022/10/16 02:07:06;;;;;;;9.87;7.50;;;14.10;99.90;;;;;;5135813;27;20403;-73
2022/10/16 02:09:33;;;;;;;11.10;7.77;;;14.10;99.90;;;;;;5135673;27;21007;-72
2022/10/16 02:12:03;;;;;;;10.90;8.13;;;14.10;99.90;;;;;;5135761;27;20478;-73
2022/10/16 02:14:29;;;;;;;10.83;8.97;;;14.10;99.90;;;;;;5135468;27;20459;-72
2022/10/16 02:16:55;;;;;;;10.80;8.47;;;14.10;99.90;;;;;;5135303;27;20395;-73
2022/10/16 02:19:22;;;;;;;9.77;8.50;;;14.10;99.90;;;;;;5117264;27;20456;-73
2022/10/16 02:21:56;;;;;;;11.83;8.33;;;14.10;99.90;;;;;;5135705;27;20210;-73
2022/10/16 02:24:27;;;;;;;12.53;8.40;;;14.10;99.90;;;;;;5117028;27;20486;-73
2022/10/16 02:27:02;;;;;;;10.60;8.20;;;14.00;99.90;;;;;;5135471;27;20926;-72
2022/10/16 02:29:28;;;;;;;13.70;8.47;;;14.00;99.90;;;;;;5135490;27;20417;-73
2022/10/16 02:32:02;;;;;;;10.67;8.73;;;14.00;99.90;;;;;;5135398;27;20774;-73
2022/10/16 02:34:31;;;;;;;16.43;9.17;;;14.00;99.90;;;;;;5135038;27;20471;-73
2022/10/16 02:36:58;;;;;;;10.60;8.47;;;14.00;99.90;;;;;;5116141;27;20407;-73
2022/10/16 02:39:24;;;;;;;10.70;8.70;;;14.00;99.90;;;;;;5116831;27;20418;-73
2022/10/16 02:41:50;;;;;;;11.03;8.73;;;13.90;99.90;;;;;;5135271;27;20399;-73
2022/10/16 02:44:15;;;;;;;11.60;9.33;;;13.90;99.90;;;;;;5135070;27;20427;-72
2022/10/16 02:46:41;;;;;;;13.63;8.87;;;13.90;99.90;;;;;;5135089;27;20502;-73
2022/10/16 02:49:07;;;;;;;12.03;8.93;;;13.90;99.90;;;;;;5135514;27;20635;-73
2022/10/16 02:51:32;;;;;;;11.17;9.23;;;13.80;99.90;;;;;;5133760;27;20168;-72
2022/10/16 02:53:58;;;;;;;11.70;8.70;;;13.80;99.90;;;;;;5133699;27;20219;-72
2022/10/16 02:56:23;;;;;;;12.87;9.27;;;13.80;99.90;;;;;;5134825;27;20195;-72
2022/10/16 02:58:49;;;;;;;13.27;9.03;;;13.70;99.90;;;;;;5134885;27;20171;-73
2022/10/16 03:01:16;;;;;;;11.33;9.20;;;13.60;99.90;;;;;;5134965;27;20235;-73
2022/10/16 03:03:42;;;;;;;11.60;9.20;;;13.60;99.90;;;;;;5133860;27;20179;-73
2022/10/16 03:06:08;;;;;;;14.17;9.77;;;13.60;99.90;;;;;;5134679;27;20426;-72
2022/10/16 03:08:33;;;;;;;16.53;10.87;;;13.50;99.90;;;;;;5116303;27;20425;-73
2022/10/16 03:10:59;;;;;;;12.03;9.10;;;13.40;99.90;;;;;;5116167;27;20209;-73
2022/10/16 03:13:25;;;;;;;14.00;9.90;;;13.40;99.90;;;;;;5116316;27;20214;-72
2022/10/16 03:15:50;;;;;;;14.23;9.60;;;13.40;99.90;;;;;;5134495;27;20257;-73
2022/10/16 03:18:16;;;;;;;17.03;10.57;;;13.30;99.90;;;;;;5133165;27;20179;-72
2022/10/16 03:20:43;;;;;;;12.70;9.80;;;13.30;99.90;;;;;;5134728;27;20195;-72
2022/10/16 03:23:08;;;;;;;14.57;8.93;;;13.20;99.90;;;;;;5134588;27;20317;-73
2022/10/16 03:25:34;;;;;;;13.17;10.00;;;13.20;99.90;;;;;;5134482;27;20439;-73
2022/10/16 03:27:59;;;;;;;13.03;11.00;;;13.10;99.90;;;;;;5115920;28;20532;-73
2022/10/16 03:30:25;;;;;;;13.50;10.30;;;13.10;99.90;;;;;;5134653;27;20515;-73
2022/10/16 03:32:53;;;;;;;13.40;9.00;;;13.10;99.90;;;;;;5134567;28;20179;-73
2022/10/16 03:35:23;;;;;;;14.53;10.73;;;13.10;99.90;;;;;;5115802;28;20226;-72
2022/10/16 03:37:49;;;;;;;14.17;9.60;;;13.10;99.90;;;;;;5115854;28;20419;-73
2022/10/16 03:40:16;;;;;;;11.37;10.10;;;13.00;99.90;;;;;;5134409;27;20459;-73
2022/10/16 03:42:43;;;;;;;17.00;11.23;;;13.00;99.90;;;;;;5134664;28;20419;-73
2022/10/16 03:45:09;;;;;;;14.90;10.30;;;13.00;99.90;;;;;;5115993;28;20885;-73
2022/10/16 03:47:35;;;;;;;14.77;10.73;;;12.90;99.90;;;;;;5135056;27;20568;-73
2022/10/16 03:50:00;;;;;;;13.03;10.00;;;12.90;99.90;;;;;;5119921;27;20495;-73
2022/10/16 03:52:26;;;;;;;15.63;10.30;;;12.80;99.90;;;;;;5138690;27;20180;-73
2022/10/16 03:54:52;;;;;;;13.97;10.40;;;12.80;99.90;;;;;;5119792;27;20582;-73
2022/10/16 03:57:17;;;;;;;17.90;10.73;;;12.80;99.90;;;;;;5119736;27;20419;-72
2022/10/16 03:59:43;;;;;;;16.57;11.70;;;12.80;99.90;;;;;;5138421;27;20195;-73
2022/10/16 04:02:09;;;;;;;13.90;10.33;;;12.70;99.90;;;;;;5138409;27;20178;-73
2022/10/16 04:04:35;;;;;;;16.13;12.00;;;12.70;99.90;;;;;;5138411;27;20195;-72
2022/10/16 04:07:00;;;;;;;16.53;11.33;;;12.70;99.90;;;;;;5137878;27;20640;-72
2022/10/16 04:09:26;;;;;;;17.00;11.37;;;12.60;99.90;;;;;;5136798;27;20838;-73
2022/10/16 04:11:52;;;;;;;15.87;10.83;;;12.60;99.90;;;;;;5137996;27;20249;-72
2022/10/16 04:14:17;;;;;;;18.00;11.70;;;12.50;99.90;;;;;;5137824;27;20206;-73
2022/10/16 04:16:43;;;;;;;18.40;13.20;;;12.50;99.90;;;;;;5138029;27;20209;-73
2022/10/16 04:19:10;;;;;;;15.30;10.73;;;12.50;99.90;;;;;;5138255;27;20179;-72
2022/10/16 04:21:36;;;;;;;15.27;11.50;;;12.50;99.90;;;;;;5138222;27;20175;-73
2022/10/16 04:24:01;;;;;;;14.53;11.50;;;12.50;99.90;;;;;;5137922;27;20309;-72
2022/10/16 04:26:27;;;;;;;16.57;11.90;;;12.40;99.90;;;;;;5137594;27;20210;-73
2022/10/16 04:28:53;;;;;;;17.17;10.80;;;12.40;99.90;;;;;;5119342;27;20183;-73
2022/10/16 04:31:19;;;;;;;15.93;11.37;;;12.40;99.90;;;;;;5137589;27;20187;-72
2022/10/16 04:33:45;;;;;;;16.77;11.53;;;12.40;99.90;;;;;;5119260;27;21071;-74
2022/10/16 04:36:11;;;;;;;15.50;12.00;;;12.40;99.90;;;;;;5137307;27;20444;-72
2022/10/16 04:38:37;;;;;;;15.33;11.57;;;12.30;99.90;;;;;;5137924;27;20266;-72
2022/10/16 04:41:03;;;;;;;15.53;11.60;;;12.30;99.90;;;;;;5137604;27;20198;-73
2022/10/16 04:43:29;;;;;;;15.87;12.40;;;12.30;99.90;;;;;;5137920;27;20423;-72
2022/10/16 04:45:56;;;;;;;17.50;11.50;;;12.20;99.90;;;;;;5137498;27;20483;-73
2022/10/16 04:48:22;;;;;;;17.93;12.33;;;12.20;99.90;;;;;;5136925;27;20176;-72
2022/10/16 04:50:47;;;;;;;14.63;11.13;;;12.20;99.90;;;;;;5137083;27;20422;-73
2022/10/16 04:53:13;;;;;;;19.27;12.90;;;12.10;99.90;;;;;;5137638;27;20206;-72
2022/10/16 04:55:39;;;;;;;17.23;12.60;;;12.10;99.90;;;;;;5137195;27;20179;-73
2022/10/16 04:58:05;;;;;;;17.70;12.37;;;12.10;99.90;;;;;;5118105;27;20183;-72
2022/10/16 05:00:31;;;;;;;19.43;13.03;;;12.10;99.90;;;;;;5137305;27;20308;-73
2022/10/16 05:02:59;;;;;;;15.90;12.40;;;12.10;99.90;;;;;;5118829;27;20467;-72
2022/10/16 05:05:25;;;;;;;16.15;12.35;;;12.10;99.90;;;;;;5137122;27;20191;-72
2022/10/16 05:07:51;;;;;;;16.60;11.90;;;12.00;99.90;;;;;;5137055;27;20179;-72
2022/10/16 05:10:17;;;;;;;18.00;11.93;;;12.00;99.90;;;;;;5136769;27;20244;-73
2022/10/16 05:12:43;;;;;;;19.55;12.18;;;12.00;99.90;;;;;;5137219;27;20202;-72
2022/10/16 05:15:09;;;;;;;23.77;13.40;;;12.00;99.90;;;;;;5118184;27;20214;-73
2022/10/16 05:17:34;;;;;;;17.50;12.10;;;12.00;99.90;;;;;;5136740;27;20695;-72
2022/10/16 05:20:00;;;;;;;16.70;12.87;;;12.00;99.90;;;;;;5136779;27;20493;-72
2022/10/16 05:22:26;;;;;;;17.77;12.27;;;12.00;99.90;;;;;;5118443;27;20202;-73
2022/10/16 05:24:51;;;;;;;21.03;12.60;;;12.00;99.90;;;;;;5136545;27;20268;-73
2022/10/16 05:27:19;;;;;;;15.23;11.27;;;12.00;99.90;;;;;;5136774;27;20180;-72
2022/10/16 05:29:46;;;;;;;19.07;11.37;;;12.00;99.90;;;;;;5117947;27;20699;-73
2022/10/16 05:32:13;;;;;;;16.77;12.75;;;11.90;99.90;;;;;;5136434;27;20412;-72
2022/10/16 05:34:38;;;;;;;14.40;12.13;;;11.90;99.90;;;;;;5136408;27;20590;-73
2022/10/16 05:37:04;;;;;;;25.10;13.23;;;11.90;99.90;;;;;;5117853;27;20183;-72
2022/10/16 05:39:29;;;;;;;17.53;13.30;;;12.00;99.90;;;;;;5136316;27;20187;-72
2022/10/16 05:41:55;;;;;;;19.60;13.20;;;12.00;99.90;;;;;;5117861;27;20235;-72
2022/10/16 05:44:20;;;;;;;15.07;11.83;;;12.00;99.90;;;;;;5118021;27;20174;-72
2022/10/16 05:46:46;;;;;;;21.67;13.47;;;12.00;99.90;;;;;;5136489;27;20190;-73
2022/10/16 05:49:12;;;;;;;18.00;12.03;;;12.10;99.90;;;;;;5136626;27;20175;-73
2022/10/16 05:51:38;;;;;;;15.77;12.40;;;12.10;99.90;;;;;;5117731;27;20404;-73
2022/10/16 05:54:03;;;;;;;19.10;12.27;;;12.10;99.90;;;;;;5136639;27;20245;-72
2022/10/16 05:56:29;;;;;;;18.27;12.27;;;12.20;99.90;;;;;;5136021;27;20187;-73
2022/10/16 05:58:54;;;;;;;15.47;12.47;;;12.20;99.90;;;;;;5136613;27;20254;-73
2022/10/16 06:01:23;;;;;;;18.33;12.80;;;12.30;99.90;;;;;;5134593;27;20222;-73
2022/10/16 06:03:52;;;;;;;14.50;11.97;;;12.30;99.90;;;;;;5136484;27;20232;-73
2022/10/16 06:06:25;;;;;;;14.70;11.70;;;12.40;99.90;;;;;;5117506;27;20823;-73
2022/10/16 06:08:52;;;;;;;15.63;11.77;;;12.40;99.90;;;;;;5117172;27;20790;-72
2022/10/16 06:11:21;;;;;;;17.50;11.73;;;12.50;99.90;;;;;;5134701;27;20987;-72
2022/10/16 06:13:51;;;;;;;15.03;10.70;;;12.50;99.90;;;;;;5136186;27;20471;-72
2022/10/16 06:16:17;;;;;;;14.77;10.80;;;12.60;99.90;;;;;;5117047;27;20440;-73
2022/10/16 06:18:43;;;;;;;15.60;10.33;;;12.60;99.90;;;;;;5135990;27;20421;-72
2022/10/16 06:21:11;;;;;;;15.07;10.30;;;12.60;99.90;;;;;;5135432;27;20226;-73
2022/10/16 06:23:37;;;;;;;17.47;11.07;;;12.70;99.90;;;;;;5135311;27;20317;-73
2022/10/16 06:26:11;;;;;;;14.77;10.83;;;12.70;99.90;;;;;;5135476;27;20426;-73
2022/10/16 06:28:37;;;;;;;14.83;10.53;;;12.80;99.90;;;;;;5115170;27;21006;-72
2022/10/16 06:31:05;;;;;;;13.90;11.43;;;12.80;99.90;;;;;;5135032;27;20426;-73
2022/10/16 06:33:30;;;;;;;16.30;11.03;;;12.90;99.90;;;;;;5135510;27;20476;-73
2022/10/16 06:36:03;;;;;;;14.23;9.20;;;12.90;99.90;;;;;;5135188;27;20878;-73
2022/10/16 06:38:29;;;;;;;14.30;9.47;;;13.00;99.90;;;;;;5135211;27;20430;-73
2022/10/16 06:40:55;;;;;;;12.37;9.33;;;13.00;99.90;;;;;;5116850;27;20458;-72
2022/10/16 06:43:20;;;;;;;12.97;10.20;;;13.10;99.90;;;;;;5135333;27;20446;-72
2022/10/16 06:45:56;;;;;;;12.20;10.00;;;13.20;99.90;;;;;;5116821;27;20197;-72
2022/10/16 06:48:23;;;;;;;11.80;9.97;;;13.20;99.90;;;;;;5116755;27;20539;-72
2022/10/16 06:50:59;;;;;;;12.07;9.50;;;13.30;99.90;;;;;;5116340;27;20427;-73
2022/10/16 06:53:25;;;;;;;12.90;8.80;;;13.40;99.90;;;;;;5135072;27;20469;-73
2022/10/16 06:55:51;;;;;;;13.40;9.83;;;13.50;99.90;;;;;;5134789;27;20445;-72
2022/10/16 06:58:16;;;;;;;11.83;9.07;;;13.60;99.90;;;;;;5135141;27;20427;-73
2022/10/16 07:00:42;;;;;;;12.47;9.80;;;13.70;99.90;;;;;;5116508;27;20195;-72
2022/10/16 07:03:08;;;;;;;11.17;9.03;;;13.80;99.90;;;;;;5135024;27;20175;-73
2022/10/16 07:05:38;;;;;;;16.27;9.70;;;13.90;99.90;;;;;;5134979;27;20199;-73
2022/10/16 07:08:05;;;;;;;10.80;9.03;;;14.00;99.90;;;;;;5116637;27;20210;-73
2022/10/16 07:10:31;;;;;;;12.87;9.50;;;14.10;99.90;;;;;;5134444;27;20775;-72
2022/10/16 07:12:57;;;;;;;12.70;9.33;;;14.20;99.90;;;;;;5116313;28;20423;-72
2022/10/16 07:15:22;;;;;;;14.10;9.40;;;14.30;99.90;;;;;;5135166;27;20782;-72
2022/10/16 07:17:48;;;;;;;10.17;8.20;;;14.40;99.90;;;;;;5133199;27;20696;-73
2022/10/16 07:20:14;;;;;;;12.00;8.70;;;14.60;99.90;;;;;;5134558;27;20198;-73
2022/10/16 07:22:39;;;;;;;11.50;8.70;;;14.70;99.90;;;;;;5134294;27;20194;-73
2022/10/16 07:25:05;;;;;;;12.00;8.70;;;14.80;99.90;;;;;;5134433;27;20298;-73
2022/10/16 07:27:31;;;;;;;9.47;8.10;;;14.90;99.90;;;;;;5134912;28;20175;-73
2022/10/16 07:29:56;;;;;;;11.37;8.17;;;15.10;99.90;;;;;;5134185;27;20418;-72
2022/10/16 07:32:23;;;;;;;11.70;8.30;;;15.20;99.90;;;;;;5133919;28;20185;-72
2022/10/16 07:34:49;;;;;;;8.90;7.13;;;15.40;99.90;;;;;;5113752;28;20219;-73
2022/10/16 07:37:14;;;;;;;14.73;8.43;;;15.60;99.90;;;;;;5134350;28;20428;-72
2022/10/16 07:39:40;;;;;;;15.87;8.63;;;15.80;99.90;;;;;;5133660;28;20540;-73
2022/10/16 07:42:05;;;;;;;11.33;8.60;;;15.90;99.90;;;;;;5133672;28;20171;-73
2022/10/16 07:44:31;;;;;;;9.30;7.27;;;16.20;99.90;;;;;;5150062;27;20191;-72
2022/10/16 07:46:57;;;;;;;12.50;7.87;;;16.50;99.90;;;;;;5134188;28;20262;-72
2022/10/16 07:49:23;;;;;;;11.73;7.67;;;17.00;99.90;;;;;;5133107;28;20168;-72
2022/10/16 07:51:48;;;;;;;11.40;7.20;;;17.60;99.90;;;;;;5134198;28;20407;-73
2022/10/16 07:54:14;;;;;;;11.53;8.27;;;18.30;99.90;;;;;;5149978;27;20258;-73
2022/10/16 07:56:39;;;;;;;10.33;7.87;;;19.10;99.90;;;;;;5135175;27;20298;-73
2022/10/16 07:59:05;;;;;;;7.93;7.10;;;20.00;99.90;;;;;;5111115;28;20237;-73
2022/10/16 08:01:30;;;;;;;8.63;7.30;;;20.70;99.90;;;;;;5111441;28;20199;-74
2022/10/16 08:03:56;;;;;;;9.10;7.27;;;21.40;99.90;;;;;;5092577;28;20547;-74
2022/10/16 08:06:22;;;;;;;8.00;6.77;;;21.90;99.90;;;;;;5130075;28;20206;-73
2022/10/16 08:08:48;;;;;;;7.00;6.30;;;22.50;99.90;;;;;;5113985;28;20262;-74
2022/10/16 08:11:14;;;;;;;7.00;6.23;;;22.80;99.90;;;;;;5132075;28;20198;-73
2022/10/16 08:13:41;;;;;;;8.40;7.40;;;23.30;99.90;;;;;;5132661;28;20600;-73
2022/10/16 08:16:08;;;;;;;8.73;6.50;;;23.80;99.90;;;;;;5132550;28;20413;-73
2022/10/16 08:18:38;;;;;;;7.30;6.60;;;24.10;99.90;;;;;;5132834;28;20419;-73
2022/10/16 08:21:05;;;;;;;8.53;6.40;;;24.30;99.90;;;;;;5132692;28;20424;-73
2022/10/16 08:23:32;;;;;;;7.17;6.47;;;24.30;99.80;;;;;;5133830;28;20489;-73
2022/10/16 08:26:05;;;;;;;9.70;5.87;;;24.40;99.60;;;;;;5134029;28;20431;-73
2022/10/16 08:28:30;;;;;;;12.73;7.10;;;24.60;98.90;;;;;;5134118;28;20425;-73
2022/10/16 08:30:56;;;;;;;6.90;6.20;;;24.90;98.20;;;;;;5133586;28;20428;-73
2022/10/16 08:33:22;;;;;;;10.20;6.50;;;25.10;97.10;;;;;;5134955;27;20201;-73
2022/10/16 08:35:53;;;;;;;10.23;7.07;;;25.10;97.10;;;;;;5137746;27;20420;-73
2022/10/16 08:38:19;;;;;;;8.07;7.23;;;25.20;96.80;;;;;;5137781;27;20425;-73
2022/10/16 08:40:45;;;;;;;8.07;7.03;;;24.90;96.90;;;;;;5137615;27;20414;-73
2022/10/16 08:43:28;;;;;;;8.07;7.27;;;24.30;96.60;;;;;;5118902;27;20200;-73
2022/10/16 08:46:25;;;;;;;8.73;6.90;;;23.70;97.20;;;;;;5137632;27;20431;-73
2022/10/16 08:48:54;;;;;;;7.80;7.00;;;23.10;98.00;;;;;;5119166;27;20424;-73
2022/10/16 08:51:22;;;;;;;10.70;6.53;;;22.50;98.80;;;;;;5135843;27;20943;-73
2022/10/16 08:53:55;;;;;;;9.07;7.37;;;22.10;99.20;;;;;;5119036;27;20483;-73
2022/10/16 08:56:21;;;;;;;7.40;6.70;;;21.80;99.70;;;;;;5118737;27;20462;-73
2022/10/16 08:58:47;;;;;;;7.80;6.70;;;21.60;99.90;;;;;;5136615;27;20837;-74
2022/10/16 09:01:15;;;;;;;6.80;6.20;;;21.60;99.90;;;;;;5137016;27;20226;-73
2022/10/16 09:04:08;;;;;;;10.37;8.23;;;21.80;99.90;;;;;;5137360;27;20488;-73
2022/10/16 09:06:48;;;;;;;7.90;5.90;;;22.00;99.90;;;;;;5137090;27;20822;-73
2022/10/16 09:09:42;;;;;;;10.33;6.70;;;22.10;99.90;;;;;;5136683;27;20480;-73
2022/10/16 09:12:40;;;;;;;8.33;6.00;;;22.00;99.90;;;;;;5136660;27;20392;-73
2022/10/16 09:15:11;;;;;;;8.40;5.93;;;21.80;99.90;;;;;;5095254;27;20471;-73
2022/10/16 09:17:49;;;;;;;10.27;7.30;;;21.50;99.90;;;;;;5137215;27;20416;-73
2022/10/16 09:20:32;;;;;;;7.30;6.57;;;21.30;99.90;;;;;;5136636;27;20431;-73
2022/10/16 09:23:37;;;;;;;7.00;6.30;;;21.20;99.90;;;;;;5136777;27;20419;-73
2022/10/16 09:26:04;;;;;;;7.27;6.30;;;21.00;99.90;;;;;;5118388;27;20470;-73
2022/10/16 09:28:30;;;;;;;7.70;7.00;;;20.80;99.90;;;;;;5136583;27;20411;-73
2022/10/16 09:30:56;;;;;;;7.67;6.63;;;20.70;99.90;;;;;;5117909;27;20518;-74
2022/10/16 09:33:25;;;;;;;7.40;6.70;;;20.70;99.90;;;;;;5136843;27;20293;-73
2022/10/16 09:35:54;;;;;;;6.60;5.83;;;20.60;99.90;;;;;;5117908;27;20206;-73
2022/10/16 09:38:30;;;;;;;7.83;6.80;;;20.70;99.90;;;;;;5135943;27;20415;-73
2022/10/16 09:40:59;;;;;;;6.90;5.90;;;20.60;99.90;;;;;;5135122;27;20462;-74
2022/10/16 09:43:46;;;;;;;7.77;6.30;;;20.60;99.90;;;;;;5117871;27;20480;-73
2022/10/16 09:46:24;;;;;;;7.67;6.97;;;20.50;99.90;;;;;;5136179;27;20962;-73
2022/10/16 09:48:51;;;;;;;7.73;6.90;;;20.40;99.90;;;;;;5136799;27;20464;-73
2022/10/16 09:51:29;;;;;;;7.07;6.47;;;20.40;99.90;;;;;;5135765;27;20765;-74
2022/10/16 09:54:00;;;;;;;7.37;6.30;;;20.40;99.90;;;;;;5135865;27;20477;-73
2022/10/16 09:56:36;;;;;;;9.23;6.93;;;20.30;99.90;;;;;;5136149;27;20426;-73
2022/10/16 09:59:11;;;;;;;8.87;6.80;;;20.30;99.90;;;;;;5117510;27;20449;-73
2022/10/16 10:01:42;;;;;;;6.57;5.87;;;20.30;99.90;;;;;;5131490;27;20915;-73
2022/10/16 10:04:08;;;;;;;6.40;5.50;;;20.40;99.90;;;;;;5116516;27;20518;-73
2022/10/16 10:06:43;;;;;;;7.33;6.23;;;20.40;99.90;;;;;;5114241;27;20456;-73
2022/10/16 10:09:24;;;;;;;11.87;7.37;;;20.40;99.90;;;;;;5135511;27;20419;-72
2022/10/16 10:12:04;;;;;;;7.23;6.53;;;20.40;99.90;;;;;;5115282;27;20772;-73
2022/10/16 10:14:39;;;;;;;10.57;6.17;;;20.40;99.90;;;;;;5114233;28;20620;-73
2022/10/16 10:17:05;;;;;;;6.63;5.67;;;20.50;99.90;;;;;;5129594;27;20430;-72
2022/10/16 10:20:00;;;;;;;7.60;5.57;;;20.60;99.90;;;;;;5130439;27;20451;-72
2022/10/16 10:22:38;;;;;;;7.37;5.60;;;20.60;99.90;;;;;;5094024;27;20191;-72
2022/10/16 10:25:13;;;;;;;6.97;6.20;;;20.70;99.90;;;;;;5126911;27;20466;-73
2022/10/16 10:28:13;;;;;;;7.00;5.30;;;20.60;99.90;;;;;;5109777;27;20446;-72
2022/10/16 10:30:42;;;;;;;6.10;5.50;;;20.70;99.90;;;;;;5122714;27;20490;-73
2022/10/16 10:33:07;;;;;;;6.37;5.67;;;20.70;99.90;;;;;;5130254;27;20435;-72
2022/10/16 10:35:43;;;;;;;5.83;5.30;;;20.70;99.90;;;;;;5109541;28;20497;-72
2022/10/16 10:38:15;;;;;;;7.50;6.80;;;20.70;99.90;;;;;;5116441;27;20180;-72
2022/10/16 10:41:13;;;;;;;6.17;5.67;;;20.70;99.90;;;;;;5129124;27;20459;-72
2022/10/16 10:43:55;;;;;;;6.10;5.50;;;20.70;99.90;;;;;;5118408;27;20938;-73
2022/10/16 10:46:51;;;;;;;6.37;5.50;;;20.70;99.90;;;;;;5134703;27;20468;-73
2022/10/16 10:49:43;;;;;;;7.03;5.53;;;20.70;99.90;;;;;;5116327;27;20427;-73
2022/10/16 10:52:37;;;;;;;7.60;5.93;;;20.60;99.90;;;;;;5134104;27;20907;-72
2022/10/16 10:55:15;;;;;;;6.30;5.03;;;20.60;99.90;;;;;;5096906;28;20472;-72
2022/10/16 10:58:01;;;;;;;7.20;6.20;;;20.70;99.90;;;;;;5130394;27;20439;-73
2022/10/16 11:00:42;;;;;;;9.13;7.33;;;20.70;99.90;;;;;;5130392;27;20457;-73
2022/10/16 11:03:22;;;;;;;7.93;6.70;;;20.80;99.90;;;;;;5125302;27;20972;-73
2022/10/16 11:05:48;;;;;;;8.07;5.47;;;20.80;99.90;;;;;;5108131;27;20454;-73
2022/10/16 11:08:33;;;;;;;6.43;5.43;;;20.80;99.90;;;;;;5126384;27;20442;-73
2022/10/16 11:11:00;;;;;;;6.83;5.03;;;20.90;99.90;;;;;;5124965;27;20229;-73
2022/10/16 11:13:29;;;;;;;9.43;6.03;;;20.90;99.90;;;;;;5131084;27;20463;-73
2022/10/16 11:16:00;;;;;;;6.80;5.30;;;20.90;99.90;;;;;;5107455;28;20862;-73
2022/10/16 11:18:47;;;;;;;7.83;5.70;;;20.90;99.90;;;;;;5131005;27;20488;-73
2022/10/16 11:21:17;;;;;;;18.97;6.17;;;21.00;99.90;;;;;;5124942;27;20439;-74
2022/10/16 11:23:51;;;;;;;8.43;6.60;;;21.00;99.90;;;;;;5127453;27;20573;-74
2022/10/16 11:26:23;;;;;;;8.53;5.30;;;21.00;99.90;;;;;;5114974;28;20862;-74
2022/10/16 11:28:51;;;;;;;6.10;5.50;;;21.10;99.90;;;;;;5133972;28;20426;-74
2022/10/16 11:31:36;;;;;;;7.30;5.43;;;21.10;99.90;;;;;;5112399;28;20440;-73
2022/10/16 11:34:19;;;;;;;6.90;5.73;;;21.20;99.90;;;;;;5127535;28;20485;-74
2022/10/16 11:37:05;;;;;;;6.60;5.43;;;21.20;99.90;;;;;;5121586;28;20412;-74
2022/10/16 11:39:30;;;;;;;9.23;6.80;;;21.10;99.90;;;;;;5105543;28;20476;-73
2022/10/16 11:42:20;;;;;;;5.87;5.30;;;21.10;99.90;;;;;;5125704;28;20456;-74
2022/10/16 11:44:55;;;;;;;6.40;5.70;;;21.10;99.90;;;;;;5104985;28;20200;-74
2022/10/16 11:47:35;;;;;;;5.40;4.90;;;21.10;99.90;;;;;;5113317;28;20430;-74
2022/10/16 11:50:12;;;;;;;6.13;5.37;;;21.00;99.90;;;;;;5123094;28;20820;-74
2022/10/16 11:52:55;;;;;;;7.17;5.77;;;21.00;99.90;;;;;;5127966;28;20439;-74
2022/10/16 11:55:26;;;;;;;7.43;5.90;;;21.00;99.90;;;;;;5119916;28;21024;-74
2022/10/16 11:57:57;;;;;;;7.00;5.63;;;21.00;99.90;;;;;;5110447;28;20431;-74
2022/10/16 12:00:33;;;;;;;5.53;4.90;;;21.00;99.90;;;;;;5106573;28;20590;-74
2022/10/16 12:03:10;;;;;;;5.33;4.80;;;21.00;99.90;;;;;;5113069;28;20446;-74
2022/10/16 12:05:55;;;;;;;5.40;4.90;;;21.10;99.90;;;;;;5115485;28;20445;-74
2022/10/16 12:08:21;;;;;;;7.10;5.57;;;21.10;99.90;;;;;;5135365;27;20555;-75
2022/10/16 12:10:48;;;;;;;6.00;5.40;;;21.10;99.90;;;;;;5137522;27;20505;-75
2022/10/16 12:13:30;;;;;;;6.70;5.70;;;21.10;99.90;;;;;;5137799;27;20463;-74
2022/10/16 12:16:07;;;;;;;6.47;5.03;;;21.20;99.90;;;;;;5119567;27;20435;-74
2022/10/16 12:18:33;;;;;;;5.57;5.03;;;21.20;99.90;;;;;;5137878;27;20760;-74
2022/10/16 12:21:05;;;;;;;6.13;4.90;;;21.20;99.90;;;;;;5134336;27;20437;-74
2022/10/16 12:23:52;;;;;;;5.50;5.00;;;21.30;99.90;;;;;;5117116;27;20466;-74
2022/10/16 12:26:29;;;;;;;7.10;5.80;;;21.30;99.90;;;;;;5127429;27;20478;-75
2022/10/16 12:28:57;;;;;;;6.97;5.30;;;21.30;99.90;;;;;;5136989;27;20479;-74
2022/10/16 12:31:24;;;;;;;9.17;5.00;;;21.40;99.90;;;;;;5113535;27;21827;-74
2022/10/16 12:33:59;;;;;;;6.47;5.57;;;21.30;99.90;;;;;;5118187;27;20490;-74
2022/10/16 12:36:34;;;;;;;5.47;4.60;;;21.30;99.90;;;;;;5134874;27;20443;-74
2022/10/16 12:39:00;;;;;;;6.23;5.63;;;21.30;99.90;;;;;;5110799;27;20461;-74
2022/10/16 12:41:35;;;;;;;8.20;4.90;;;21.30;99.90;;;;;;5132752;27;20979;-73
2022/10/16 12:44:01;;;;;;;6.67;5.00;;;21.20;99.90;;;;;;5127894;27;20984;-72
2022/10/16 12:46:30;;;;;;;8.00;4.60;;;21.30;99.90;;;;;;5129615;27;20451;-73
2022/10/16 12:49:14;;;;;;;5.77;5.13;;;21.30;99.90;;;;;;5118171;27;20449;-73
2022/10/16 12:51:42;;;;;;;6.13;4.80;;;21.30;99.90;;;;;;5117166;27;20535;-73
2022/10/16 12:54:15;;;;;;;5.83;5.33;;;21.30;99.90;;;;;;5134951;27;20951;-73
2022/10/16 12:57:05;;;;;;;6.83;5.10;;;21.40;99.90;;;;;;5134274;27;20427;-73